.
WxDataArchive / Data Records for 2014-11-20
2014-11-19 November 2014 2014-11-21

Data Records for Thursday, 20 November 2014

Time	Temp	Chill	HIndex	Humid	Dewpt	 Wind 	HiWind	WindDir	Rain 	Barom
-----	----	-----	------	-----	-----	------	------	-------	-----	-----
00:00	23.2	23.2	23.2	61	11.8	2	6	248	0.00	29.994 
00:05	23.2	23.2	23.2	62	12.1	2	6	248	0.00	29.994 
00:10	23.2	23.2	23.2	62	12.1	2	6	248	0.00	29.994 
00:15	23.0	23.0	23.0	62	11.9	1	3	248	0.00	29.998 
00:20	23.0	23.0	23.0	62	11.9	3	6	248	0.00	29.998 
00:25	23.2	23.2	23.2	62	12.1	2	7	248	0.00	29.998 
00:30	23.2	23.2	23.2	62	12.1	2	6	248	0.00	30.001 
00:35	23.0	23.0	23.0	63	12.3	2	5	248	0.00	30.001 
00:40	23.0	23.0	23.0	63	12.3	2	7	248	0.00	30.001 
00:45	23.0	23.0	23.0	63	12.3	2	6	248	0.00	29.999 
00:50	23.0	23.0	23.0	63	12.3	3	7	248	0.00	29.999 
00:55	22.9	22.9	22.9	63	12.2	2	5	270	0.00	29.999 
01:00	22.9	22.9	22.9	63	12.2	2	5	248	0.00	30.000 
01:05	23.0	23.0	23.0	62	11.9	2	5	248	0.00	30.000 
01:10	23.0	23.0	23.0	62	11.9	2	5	248	0.00	30.000 
01:15	23.0	23.0	23.0	60	11.2	3	7	270	0.00	29.995 
01:20	23.0	23.0	23.0	60	11.2	2	5	248	0.00	29.995 
01:25	23.0	23.0	23.0	59	10.8	2	5	270	0.00	29.995 
01:30	23.0	23.0	23.0	58	10.5	3	6	248	0.00	29.992 
01:35	23.0	23.0	23.0	58	10.5	2	7	248	0.00	29.992 
01:40	23.0	23.0	23.0	58	10.5	2	5	248	0.00	29.992 
01:45	23.0	23.0	23.0	57	10.1	2	5	248	0.00	29.993 
01:50	23.0	23.0	23.0	58	10.5	2	5	270	0.00	29.993 
01:55	23.0	23.0	23.0	57	10.1	2	5	248	0.00	29.993 
02:00	23.0	23.0	23.0	58	10.5	2	5	248	0.00	29.997 
02:05	23.0	23.0	23.0	58	10.5	2	7	248	0.00	29.997 
02:10	23.0	23.0	23.0	58	10.5	2	6	248	0.00	29.997 
02:15	23.0	23.0	23.0	58	10.5	2	6	248	0.00	29.999 
02:20	23.0	23.0	23.0	58	10.5	2	6	248	0.00	29.999 
02:25	23.0	23.0	23.0	59	10.8	1	3	248	0.00	29.999 
02:30	22.9	22.9	22.9	59	10.7	1	4	225	0.00	30.000 
02:35	22.9	22.9	22.9	59	10.7	2	6	248	0.00	30.000 
02:40	22.9	22.9	22.9	60	11.1	2	5	248	0.00	30.000 
02:45	22.9	22.9	22.9	59	10.7	2	5	248	0.00	30.002 
02:50	22.9	22.9	22.9	59	10.7	2	5	248	0.00	30.002 
02:55	22.7	22.7	22.7	59	10.6	2	7	248	0.00	30.002 
03:00	22.5	22.5	22.5	58	10.0	2	5	248	0.00	30.008 
03:05	22.4	22.4	22.4	58	9.9	1	4	248	0.00	30.008 
03:10	22.2	22.2	22.2	58	9.7	1	4	248	0.00	30.008 
03:15	22.1	22.1	22.1	58	9.6	1	4	248	0.00	30.012 
03:20	22.1	22.1	22.1	58	9.6	1	5	248	0.00	30.012 
03:25	22.1	22.1	22.1	59	10.0	0	2	248	0.00	30.012 
03:30	22.1	22.1	22.1	59	10.0	1	4	248	0.00	30.005 
03:35	22.2	22.2	22.2	60	10.5	1	4	248	0.00	30.005 
03:40	22.2	22.2	22.2	60	10.5	1	3	248	0.00	30.005 
03:45	22.4	22.4	22.4	61	11.0	1	5	248	0.00	30.001 
03:50	22.2	22.2	22.2	62	11.2	1	4	248	0.00	30.001 
03:55	22.2	22.2	22.2	63	11.6	1	4	248	0.00	30.001 
04:00	22.2	22.2	22.2	64	11.9	1	5	248	0.00	30.000 
04:05	22.1	22.1	22.1	64	11.8	1	2	248	0.00	30.000 
04:10	22.1	22.1	22.1	65	12.2	0	2	248	0.00	30.000 
04:15	22.1	22.1	22.1	68	13.2	1	4	248	0.00	30.003 
04:20	22.2	22.2	22.2	62	11.2	1	4	248	0.00	30.003 
04:25	22.2	22.2	22.2	61	10.8	2	5	248	0.00	30.003 
04:30	22.4	22.4	22.4	60	10.6	2	5	248	0.00	30.002 
04:35	22.5	22.5	22.5	60	10.7	1	3	248	0.00	30.002 
04:40	22.5	22.5	22.5	61	11.1	1	4	248	0.00	30.002 
04:45	22.5	22.5	22.5	61	11.1	1	4	248	0.00	30.000 
04:50	22.4	22.4	22.4	61	11.0	1	6	248	0.00	30.000 
04:55	22.2	22.2	22.2	61	10.8	1	4	248	0.00	30.000 
05:00	22.1	22.1	22.1	61	10.7	1	3	248	0.00	30.002 
05:05	21.9	21.9	21.9	61	10.5	1	4	248	0.00	30.002 
05:10	21.9	21.9	21.9	61	10.5	1	6	248	0.00	30.002 
05:15	21.8	21.8	21.8	61	10.4	1	3	270	0.00	30.008 
05:20	21.8	21.8	21.8	62	10.8	1	4	270	0.00	30.008 
05:25	21.6	21.6	21.6	64	11.3	1	4	248	0.00	30.008 
05:30	21.6	21.6	21.6	65	11.7	1	4	248	0.00	30.010 
05:35	21.4	21.4	21.4	65	11.5	2	5	248	0.00	30.010 
05:40	21.4	21.4	21.4	65	11.5	2	6	248	0.00	30.010 
05:45	21.3	21.3	21.3	66	11.7	1	3	248	0.00	30.013 
05:50	21.1	21.1	21.1	66	11.5	1	6	248	0.00	30.013 
05:55	21.1	21.1	21.1	67	11.9	1	5	248	0.00	30.013 
06:00	21.0	21.0	21.0	68	12.1	1	4	248	0.00	30.011 
06:05	20.8	20.8	20.8	69	12.3	1	5	248	0.00	30.011 
06:10	20.6	20.6	20.6	69	12.1	1	4	248	0.00	30.011 
06:15	20.5	20.5	20.5	69	12.0	1	4	248	0.00	30.019 
06:20	20.5	20.5	20.5	70	12.3	1	4	248	0.00	30.019 
06:25	20.3	20.3	20.3	70	12.1	1	5	248	0.00	30.019 
06:30	20.2	20.2	20.2	70	12.0	2	5	248	0.00	30.023 
06:35	20.0	20.0	20.0	71	12.1	1	5	248	0.00	30.023 
06:40	19.9	19.9	19.9	71	12.0	1	3	248	0.00	30.023 
06:45	19.7	19.7	19.7	71	11.8	0	4	248	0.00	30.026 
06:50	19.5	19.5	19.5	72	12.0	1	4	248	0.00	30.026 
06:55	19.5	19.5	19.5	72	12.0	1	4	248	0.00	30.026 
07:00	19.4	19.4	19.4	73	12.2	1	4	248	0.00	30.033 
07:05	19.2	19.2	19.2	73	12.0	0	3	248	0.00	30.033 
07:10	19.2	19.2	19.2	73	12.0	2	4	248	0.00	30.033 
07:15	19.2	19.2	19.2	73	12.0	1	4	270	0.00	30.036 
07:20	19.2	19.2	19.2	73	12.0	1	5	248	0.00	30.036 
07:25	19.1	19.1	19.1	73	11.9	1	4	248	0.00	30.036 
07:30	19.1	19.1	19.1	74	12.2	1	3	248	0.00	30.039 
07:35	18.9	18.9	18.9	74	12.0	1	6	248	0.00	30.039 
07:40	18.9	18.9	18.9	74	12.0	1	6	248	0.00	30.039 
07:45	18.8	18.8	18.8	74	11.9	1	6	248	0.00	30.040 
07:50	18.8	18.8	18.8	75	12.2	1	5	248	0.00	30.040 
07:55	18.8	18.8	18.8	75	12.2	1	6	248	0.00	30.040 
08:00	18.8	18.8	18.8	75	12.2	0	4	248	0.00	30.043 
08:05	18.9	18.9	18.9	75	12.3	1	5	248	0.00	30.043 
08:10	19.1	19.1	19.1	74	12.2	2	5	248	0.00	30.043 
08:15	19.2	19.2	19.2	74	12.3	1	5	248	0.00	30.051 
08:20	19.4	19.4	19.4	73	12.2	2	4	248	0.00	30.051 
08:25	19.4	19.4	19.4	73	12.2	1	4	248	0.00	30.051 
08:30	19.5	19.5	19.5	73	12.3	1	5	248	0.00	30.052 
08:35	19.7	19.7	19.7	73	12.5	2	6	248	0.00	30.052 
08:40	19.9	19.9	19.9	72	12.4	2	5	248	0.00	30.052 
08:45	20.0	20.0	20.0	72	12.5	2	5	248	0.00	30.057 
08:50	20.2	20.2	20.2	72	12.6	2	6	270	0.00	30.057 
08:55	20.2	20.2	20.2	71	12.3	3	6	248	0.00	30.057 
09:00	20.3	20.3	20.3	71	12.4	2	7	248	0.00	30.057 
09:05	20.5	20.5	20.5	70	12.3	3	9	248	0.00	30.057 
09:10	20.6	20.6	20.6	70	12.4	2	5	248	0.00	30.057 
09:15	20.8	20.8	20.8	70	12.6	2	6	248	0.00	30.060 
09:20	21.0	21.0	21.0	69	12.5	2	6	248	0.00	30.060 
09:25	21.1	21.1	21.1	69	12.5	3	7	248	0.00	30.060 
09:30	21.3	21.3	21.3	68	12.4	2	6	248	0.00	30.066 
09:35	21.4	21.4	21.4	69	12.8	2	5	248	0.00	30.066 
09:40	21.4	21.4	21.4	68	12.5	3	12	248	0.00	30.066 
09:45	21.4	21.4	21.4	68	12.5	3	9	270	0.00	30.067 
09:50	21.6	21.6	21.6	68	12.7	2	5	270	0.00	30.067 
09:55	21.6	21.6	21.6	67	12.4	3	9	248	0.00	30.067 
10:00	21.8	21.8	21.8	68	12.9	3	6	248	0.00	30.068 
10:05	21.9	21.9	21.9	68	13.0	2	7	248	0.00	30.068 
10:10	22.2	22.2	22.2	66	12.6	2	6	248	0.00	30.068 
10:15	22.2	22.2	22.2	65	12.3	3	6	248	0.00	30.072 
10:20	22.4	22.4	22.4	65	12.4	3	8	248	0.00	30.072 
10:25	22.4	17.0	22.4	64	12.1	4	10	248	0.00	30.072 
10:30	22.7	22.7	22.7	64	12.4	3	10	270	0.00	30.070 
10:35	22.9	22.9	22.9	63	12.2	3	6	248	0.00	30.070 
10:40	23.2	23.2	23.2	63	12.5	3	7	248	0.00	30.070 
10:45	23.3	23.3	23.3	63	12.6	2	5	248	0.00	30.073 
10:50	23.5	23.5	23.5	62	12.4	2	6	248	0.00	30.073 
10:55	23.6	23.6	23.6	62	12.5	3	9	248	0.00	30.073 
11:00	23.8	23.8	23.8	62	12.7	2	6	248	0.00	30.070 
11:05	23.8	23.8	23.8	61	12.3	3	7	270	0.00	30.070 
11:10	23.9	23.9	23.9	61	12.4	3	7	248	0.00	30.070 
11:15	24.2	24.2	24.2	62	13.1	2	4	248	0.00	30.072 
11:20	24.5	24.5	24.5	60	12.6	3	5	270	0.00	30.072 
11:25	24.5	24.5	24.5	59	12.3	3	6	270	0.00	30.072 
11:30	24.8	24.8	24.8	59	12.5	3	7	270	0.00	30.068 
11:35	24.7	19.6	24.7	56	11.3	4	7	248	0.00	30.068 
11:40	24.8	19.8	24.8	57	11.8	4	7	270	0.00	30.068 
11:45	25.0	25.0	25.0	57	11.9	3	7	248	0.00	30.067 
11:50	25.4	25.4	25.4	58	12.7	2	5	248	0.00	30.067 
11:55	25.7	25.7	25.7	56	12.2	3	6	248	0.00	30.067 
12:00	25.8	25.8	25.8	55	11.9	3	7	270	0.00	30.062 
12:05	25.7	20.8	25.7	54	11.4	4	7	270	0.00	30.062 
12:10	25.6	25.6	25.6	54	11.3	3	11	270	0.00	30.062 
12:15	25.6	25.6	25.6	54	11.3	3	6	270	0.00	30.059 
12:20	25.6	25.6	25.6	53	10.9	3	6	270	0.00	30.059 
12:25	25.4	25.4	25.4	53	10.7	3	8	248	0.00	30.059 
12:30	25.3	20.3	25.3	53	10.6	4	8	270	0.00	30.056 
12:35	25.4	25.4	25.4	53	10.7	3	7	248	0.00	30.056 
12:40	25.4	20.5	25.4	53	10.7	4	10	270	0.00	30.056 
12:45	25.7	25.7	25.7	55	11.8	2	6	248	0.00	30.054 
12:50	26.3	26.3	26.3	54	11.9	2	5	248	0.00	30.054 
12:55	26.0	21.1	26.0	51	10.4	4	10	248	0.00	30.054 
13:00	25.8	20.9	25.8	52	10.6	4	13	248	0.00	30.050 
13:05	25.8	25.8	25.8	53	11.1	2	13	248	0.00	30.050 
13:10	26.3	26.3	26.3	53	11.5	3	11	270	0.00	30.050 
13:15	26.6	26.6	26.6	54	12.2	3	9	270	0.00	30.053 
13:20	26.6	26.6	26.6	53	11.8	3	9	248	0.00	30.053 
13:25	26.6	26.6	26.6	54	12.2	2	5	248	0.00	30.053 
13:30	26.7	26.7	26.7	53	11.9	3	9	248	0.00	30.052 
13:35	26.9	26.9	26.9	53	12.1	2	7	270	0.00	30.052 
13:40	26.9	26.9	26.9	53	12.1	2	6	248	0.00	30.052 
13:45	26.7	26.7	26.7	53	11.9	3	7	270	0.00	30.050 
13:50	26.7	26.7	26.7	52	11.5	3	6	270	0.00	30.050 
13:55	27.2	27.2	27.2	53	12.4	2	6	270	0.00	30.050 
14:00	27.0	27.0	27.0	52	11.7	2	11	270	0.00	30.052 
14:05	27.3	27.3	27.3	54	12.9	1	5	270	0.00	30.052 
14:10	27.5	27.5	27.5	51	11.8	3	6	270	0.00	30.052 
14:15	27.3	27.3	27.3	51	11.6	3	7	248	0.00	30.054 
14:20	27.2	27.2	27.2	51	11.5	3	10	248	0.00	30.054 
14:25	27.3	27.3	27.3	51	11.6	3	9	248	0.00	30.054 
14:30	27.5	27.5	27.5	52	12.2	3	7	248	0.00	30.055 
14:35	27.2	27.2	27.2	52	11.9	3	7	248	0.00	30.055 
14:40	27.2	27.2	27.2	52	11.9	2	6	248	0.00	30.055 
14:45	27.2	27.2	27.2	52	11.9	2	7	248	0.00	30.055 
14:50	27.3	27.3	27.3	51	11.6	3	7	248	0.00	30.055 
14:55	27.5	22.9	27.5	51	11.8	4	7	270	0.00	30.055 
15:00	27.5	22.9	27.5	51	11.8	4	10	248	0.00	30.055 
15:05	27.2	22.5	27.2	51	11.5	4	10	248	0.00	30.055 
15:10	27.2	27.2	27.2	52	11.9	3	10	248	0.00	30.055 
15:15	27.2	27.2	27.2	52	11.9	2	5	270	0.00	30.062 
15:20	27.3	27.3	27.3	52	12.0	2	6	270	0.00	30.062 
15:25	27.5	27.5	27.5	52	12.2	2	6	292	0.00	30.062 
15:30	27.3	27.3	27.3	51	11.6	3	7	270	0.00	30.066 
15:35	27.3	27.3	27.3	52	12.0	2	5	270	0.00	30.066 
15:40	27.2	27.2	27.2	51	11.5	2	6	270	0.00	30.066 
15:45	27.5	27.5	27.5	50	11.3	2	5	248	0.00	30.066 
15:50	27.6	27.6	27.6	50	11.4	2	5	248	0.00	30.066 
15:55	27.6	27.6	27.6	47	10.0	3	7	270	0.00	30.066 
16:00	27.6	27.6	27.6	47	10.0	3	7	270	0.00	30.067 
16:05	27.6	27.6	27.6	47	10.0	3	6	270	0.00	30.067 
16:10	27.6	27.6	27.6	48	10.5	2	9	248	0.00	30.067 
16:15	27.8	27.8	27.8	48	10.7	2	6	248	0.00	30.068 
16:20	27.9	27.9	27.9	48	10.8	1	4	248	0.00	30.068 
16:25	27.9	27.9	27.9	47	10.3	2	4	270	0.00	30.068 
16:30	27.8	27.8	27.8	48	10.7	2	4	248	0.00	30.070 
16:35	27.6	27.6	27.6	48	10.5	2	5	248	0.00	30.070 
16:40	27.5	27.5	27.5	47	9.9	2	6	248	0.00	30.070 
16:45	27.3	27.3	27.3	47	9.8	3	6	270	0.00	30.079 
16:50	27.2	27.2	27.2	49	10.6	1	3	270	0.00	30.079 
16:55	27.2	27.2	27.2	49	10.6	2	4	270	0.00	30.079 
17:00	27.2	27.2	27.2	49	10.6	1	4	248	0.00	30.086 
17:05	27.2	27.2	27.2	48	10.1	2	6	248	0.00	30.086 
17:10	27.0	27.0	27.0	48	10.0	1	5	248	0.00	30.086 
17:15	26.9	26.9	26.9	49	10.3	1	4	248	0.00	30.087 
17:20	26.7	26.7	26.7	49	10.1	1	2	248	0.00	30.087 
17:25	26.6	26.6	26.6	49	10.0	1	5	248	0.00	30.087 
17:30	26.6	26.6	26.6	49	10.0	1	3	248	0.00	30.094 
17:35	26.6	26.6	26.6	50	10.5	1	3	248	0.00	30.094 
17:40	26.4	26.4	26.4	49	9.9	1	4	248	0.00	30.094 
17:45	26.4	26.4	26.4	50	10.3	1	3	248	0.00	30.105 
17:50	26.3	26.3	26.3	49	9.8	1	3	248	0.00	30.105 
17:55	26.1	26.1	26.1	48	9.1	1	3	248	0.00	30.105 
18:00	26.0	26.0	26.0	47	8.6	1	5	248	0.00	30.116 
18:05	25.8	25.8	25.8	47	8.4	0	2	315	0.00	30.116 
18:10	25.6	25.6	25.6	47	8.2	0	2	315	0.00	30.116 
18:15	25.4	25.4	25.4	46	7.5	1	3	315	0.00	30.123 
18:20	25.3	25.3	25.3	46	7.4	1	3	315	0.00	30.123 
18:25	25.3	25.3	25.3	45	7.0	1	3	315	0.00	30.123 
18:30	25.1	25.1	25.1	45	6.8	1	3	315	0.00	30.128 
18:35	25.1	25.1	25.1	45	6.8	1	3	292	0.00	30.128 
18:40	25.0	25.0	25.0	45	6.7	1	4	292	0.00	30.128 
18:45	24.8	24.8	24.8	46	7.0	0	2	292	0.00	30.136 
18:50	24.7	24.7	24.7	46	6.9	0	2	292	0.00	30.136 
18:55	24.5	24.5	24.5	47	7.2	0	2	292	0.00	30.136 
19:00	24.4	24.4	24.4	47	7.1	0	2	292	0.00	30.140 
19:05	24.2	24.2	24.2	47	6.9	0	2	292	0.00	30.140 
19:10	24.1	24.1	24.1	47	6.8	0	2	292	0.00	30.140 
19:15	24.2	24.2	24.2	47	6.9	1	2	292	0.00	30.143 
19:20	24.1	24.1	24.1	46	6.3	0	3	292	0.00	30.143 
19:25	24.1	24.1	24.1	47	6.8	0	2	292	0.00	30.143 
19:30	24.1	24.1	24.1	47	6.8	1	3	292	0.00	30.152 
19:35	23.9	23.9	23.9	46	6.2	1	3	292	0.00	30.152 
19:40	23.9	23.9	23.9	46	6.2	1	3	292	0.00	30.152 
19:45	23.8	23.8	23.8	46	6.1	1	3	292	0.00	30.156 
19:50	23.8	23.8	23.8	46	6.1	0	2	292	0.00	30.156 
19:55	23.6	23.6	23.6	47	6.4	0	2	292	0.00	30.156 
20:00	23.5	23.5	23.5	47	6.3	0	2	292	0.00	30.160 
20:05	23.3	23.3	23.3	47	6.1	0	1	292	0.00	30.160 
20:10	23.2	23.2	23.2	48	6.5	0	1	292	0.00	30.160 
20:15	23.0	23.0	23.0	48	6.3	0	2	292	0.00	30.165 
20:20	22.9	22.9	22.9	48	6.2	0	3	292	0.00	30.165 
20:25	22.9	22.9	22.9	48	6.2	0	2	292	0.00	30.165 
20:30	22.7	22.7	22.7	48	6.0	0	2	292	0.00	30.169 
20:35	22.5	22.5	22.5	48	5.8	0	2	292	0.00	30.169 
20:40	22.4	22.4	22.4	49	6.2	0	1	292	0.00	30.169 
20:45	22.2	22.2	22.2	50	6.4	0	1	292	0.00	30.171 
20:50	21.9	21.9	21.9	50	6.1	0	0	---	0.00	30.171 
20:55	21.6	21.6	21.6	51	6.3	0	1	292	0.00	30.171 
21:00	21.3	21.3	21.3	51	6.0	0	1	292	0.00	30.176 
21:05	21.4	21.4	21.4	51	6.1	0	2	292	0.00	30.176 
21:10	21.6	21.6	21.6	50	5.9	1	3	292	0.00	30.176 
21:15	21.8	21.8	21.8	50	6.1	1	3	292	0.00	30.176 
21:20	21.9	21.9	21.9	49	5.7	1	2	292	0.00	30.176 
21:25	21.9	21.9	21.9	49	5.7	1	3	292	0.00	30.176 
21:30	21.9	21.9	21.9	49	5.7	1	3	292	0.00	30.184 
21:35	21.9	21.9	21.9	49	5.7	1	3	292	0.00	30.184 
21:40	21.9	21.9	21.9	48	5.3	1	4	292	0.00	30.184 
21:45	21.9	21.9	21.9	48	5.3	2	4	270	0.00	30.186 
21:50	21.9	21.9	21.9	48	5.3	1	4	292	0.00	30.186 
21:55	21.9	21.9	21.9	48	5.3	1	3	292	0.00	30.186 
22:00	21.8	21.8	21.8	48	5.2	1	2	292	0.00	30.195 
22:05	21.8	21.8	21.8	48	5.2	1	2	292	0.00	30.195 
22:10	21.6	21.6	21.6	48	5.0	1	3	292	0.00	30.195 
22:15	21.6	21.6	21.6	49	5.4	1	2	292	0.00	30.199 
22:20	21.4	21.4	21.4	49	5.2	1	3	292	0.00	30.199 
22:25	21.4	21.4	21.4	49	5.2	1	2	292	0.00	30.199 
22:30	21.3	21.3	21.3	49	5.2	0	3	292	0.00	30.203 
22:35	21.1	21.1	21.1	49	5.0	1	2	292	0.00	30.203 
22:40	21.0	21.0	21.0	50	5.3	0	1	292	0.00	30.203 
22:45	20.8	20.8	20.8	50	5.1	0	1	292	0.00	30.209 
22:50	20.6	20.6	20.6	51	5.4	0	1	292	0.00	30.209 
22:55	20.5	20.5	20.5	51	5.3	0	1	292	0.00	30.209 
23:00	20.3	20.3	20.3	51	5.1	0	1	292	0.00	30.217 
23:05	20.2	20.2	20.2	52	5.4	0	1	292	0.00	30.217 
23:10	20.0	20.0	20.0	52	5.2	0	1	292	0.00	30.217 
23:15	19.9	19.9	19.9	52	5.1	0	1	292	0.00	30.226 
23:20	19.7	19.7	19.7	53	5.4	0	1	292	0.00	30.226 
23:25	19.5	19.5	19.5	53	5.2	0	1	292	0.00	30.226 
23:30	19.4	19.4	19.4	54	5.5	0	0	---	0.00	30.233 
23:35	19.1	19.1	19.1	54	5.2	0	1	292	0.00	30.233 
23:40	18.9	18.9	18.9	55	5.4	0	1	292	0.00	30.233 
23:45	18.8	18.8	18.8	55	5.3	0	1	292	0.00	30.239 
23:50	18.8	18.8	18.8	55	5.3	0	1	292	0.00	30.239 
23:55	18.8	18.8	18.8	55	5.3	0	1	292	0.00	30.239 

CoCoRaHS
IN-AL-39
A2 Web Hosting
Creative Commons License
GoDaddy
search engine by freefind advanced

loaded 2018-11-20 09:18:07 • last modified 2010-11-18 10:43:29
Privacy PolicyDisclaimer
• wx.awcolley.com is powered by PmWiki v.2002016 •
• all content (unless otherwise noted) © 2018 A W Colley